Airfield :
LOGIN :

Register | Disclaimer

   EN    FR    IT 

 










Legend :    VFR   Marginal VFR   IFR   Intensive IFR   Very Intensive IFR
Visi :
Ceiling :
>= 8 km
>= 3000ft
5 to 8 km
1000 to 3000 ft
1500m to 5 km
500 to 1000 ft
800 to 1500m
200 to 500 ft
< 800m
< 200 ft
Symbols :   Thunderstorms  Fog  Heavy snow  Heavy precipitations  Wind > 20 kt
SIGMETs :     Misc.  Thunderstorms  Icing  Turbulence  Mountain Waves  Volcanic Ashes






- Airport Elevation : 33 ft
- IATA code : MHZ


EGUN - RAF Mildenhall

CURRENT METAR :
  • 022156Z AUTO 06003KT 9999 SCT160 BKN190 14/08 A2992 RMK AO2 RAB18E21RAB26E34 SLP135 P0000 T01410078 $

EXPIRED METARs :
  • 022134Z AUTO 00000KT 9999 SCT190 15/07 A2992 RMK AO2 RAB18E21RAB26E34 SLP135 $
  • 022126Z AUTO 00000KT 9999 -RA FEW190 15/07 A2992 RMK AO2 RAB18E21RAB26 SLP135 $
  • 022121Z AUTO 00000KT 9999 CLR 15/07 A2993 RMK AO2 RAB18E21 SLP138 $
  • 022056Z AUTO 00000KT 9999 SCT190 17/06 A2994 RMK AO2 SLP142 T01670059 57011 $
  • 021956Z AUTO 01003KT 9999 FEW190 18/07 A2995 RMK AO2 SLP145 T01780066 $

TAF TAF EGUN
Valid from the 02 at 20:00 until the 04 at 02:00 UTC


022000Z 0220/0402 01006KT 9999 SCT120 QNH2980INS
BECMG 0305/0306 36010G15KT 9999 BKN050 QNH2971INS
TEMPO 0312/0318 36012G20KT
BECMG 0400/0401 36009KT 8000 -SHRA BKN015 QNH2964INS TX20/0220Z TN09/0305Z



MET'MAP, your aeronautical weather chart ! - Copyright ORBIFLY December 2007 - Disclaimer

ORBIFLY MET'MAP TEAM :

Programming & Development : Alexandra Zaïnal
Concept & original design : Baudouin d'Aumeries
Assistance for programming : Marc-Olivier Méhu
Technical & hardware support : Manuel Goepfert

Contact : metmap@orbifly.com




SOURCES & CREDITS :

   NOAA